createdAt,value
2019-04-26T00:00:57.194Z,0.80
2019-04-26T00:03:30.272Z,1.00
2019-04-26T00:05:59.504Z,0.90
2019-04-26T00:08:28.564Z,1.00
2019-04-26T00:11:05.229Z,1.10
2019-04-26T00:13:35.921Z,1.10
2019-04-26T00:16:18.917Z,1.00
2019-04-26T00:18:48.063Z,1.10
2019-04-26T00:21:16.946Z,1.10
2019-04-26T00:23:46.656Z,1.00
2019-04-26T00:26:17.647Z,1.27
2019-04-26T00:28:46.720Z,1.03
2019-04-26T00:31:15.789Z,1.10
2019-04-26T00:33:44.883Z,1.10
2019-04-26T00:36:14.811Z,0.90
2019-04-26T00:38:43.851Z,0.80
2019-04-26T00:41:14.081Z,1.00
2019-04-26T00:43:43.193Z,1.20
2019-04-26T00:46:13.364Z,1.00
2019-04-26T00:48:42.619Z,0.80
2019-04-26T00:51:11.575Z,0.80
2019-04-26T00:53:41.206Z,0.93
2019-04-26T00:56:11.938Z,0.80
2019-04-26T00:58:41.093Z,0.80
2019-04-26T01:01:11.388Z,0.70
2019-04-26T01:03:40.366Z,0.70
2019-04-26T01:06:10.896Z,0.73
2019-04-26T01:08:39.800Z,0.87
2019-04-26T01:11:08.769Z,0.80
2019-04-26T01:13:38.742Z,0.90
2019-04-26T01:16:07.780Z,1.00
2019-04-26T01:18:36.743Z,0.60
2019-04-26T01:21:06.841Z,0.70
2019-04-26T01:23:37.293Z,0.70
2019-04-26T01:26:10.790Z,0.73
2019-04-26T01:28:43.939Z,0.90
2019-04-26T01:31:13.424Z,0.70
2019-04-26T01:33:43.249Z,0.90
2019-04-26T01:36:13.662Z,0.80
2019-04-26T01:38:44.413Z,0.70
2019-04-26T01:41:16.529Z,0.97
2019-04-26T01:43:50.425Z,0.87
2019-04-26T01:46:29.012Z,0.90
2019-04-26T01:48:59.975Z,0.70
2019-04-26T01:51:30.472Z,0.70
2019-04-26T01:53:59.423Z,0.70
2019-04-26T01:56:29.900Z,0.60
2019-04-26T01:58:58.793Z,0.80
2019-04-26T02:01:32.227Z,0.70
2019-04-26T02:04:01.104Z,0.70
2019-04-26T02:06:33.553Z,0.70
2019-04-26T02:09:00.754Z,0.80
2019-04-26T02:11:31.350Z,0.70
2019-04-26T02:14:00.248Z,0.80
2019-04-26T02:16:29.226Z,0.60
2019-04-26T02:18:58.185Z,0.60
2019-04-26T02:21:29.904Z,0.63
2019-04-26T02:24:03.405Z,0.70
2019-04-26T02:26:34.836Z,0.90
2019-04-26T02:29:05.765Z,0.80
2019-04-26T02:31:37.472Z,0.60
2019-04-26T02:34:06.093Z,0.70
2019-04-26T02:36:53.011Z,0.73
2019-04-26T02:39:07.791Z,0.80
2019-04-26T02:41:37.184Z,0.63
2019-04-26T02:44:07.809Z,0.73
2019-04-26T02:46:45.803Z,0.60
2019-04-26T02:49:25.127Z,0.70
2019-04-26T02:52:02.537Z,0.60
2019-04-26T02:54:47.308Z,0.43
2019-04-26T02:57:17.825Z,0.60
2019-04-26T02:59:48.149Z,0.70
2019-04-26T03:02:18.596Z,0.50
2019-04-26T03:04:49.027Z,0.70
2019-04-26T03:07:19.496Z,0.70
2019-04-26T03:09:49.925Z,0.50
2019-04-26T03:12:20.384Z,0.60
2019-04-26T03:15:13.281Z,0.67
2019-04-26T03:17:43.318Z,0.60
2019-04-26T03:20:15.376Z,0.70
2019-04-26T03:23:02.446Z,0.60
2019-04-26T03:25:34.438Z,0.60
2019-04-26T03:28:21.899Z,0.73
2019-04-26T03:30:53.425Z,0.67
2019-04-26T03:33:38.635Z,0.70
2019-04-26T03:36:16.037Z,0.67
2019-04-26T03:38:48.161Z,0.63
2019-04-26T03:41:23.325Z,0.67
2019-04-26T03:43:56.652Z,0.70
2019-04-26T03:46:29.804Z,0.90
2019-04-26T03:49:16.763Z,0.77
2019-04-26T03:52:05.358Z,0.70
2019-04-26T03:54:37.235Z,0.50
2019-04-26T03:57:24.858Z,0.80
2019-04-26T03:59:59.847Z,0.83
2019-04-26T04:02:39.267Z,0.63
2019-04-26T04:05:11.474Z,0.80
2019-04-26T04:07:47.281Z,0.70
2019-04-26T04:10:13.074Z,0.87
2019-04-26T04:12:44.404Z,0.73
2019-04-26T04:15:15.858Z,0.70
2019-04-26T04:17:49.919Z,0.77
2019-04-26T04:20:24.650Z,0.90
2019-04-26T04:22:57.761Z,1.03
2019-04-26T04:25:47.794Z,0.80
2019-04-26T04:28:18.719Z,1.03
2019-04-26T04:30:52.280Z,1.00
2019-04-26T04:33:28.733Z,1.00
2019-04-26T04:35:59.215Z,0.90
2019-04-26T04:38:31.290Z,0.90
2019-04-26T04:41:15.526Z,0.77
2019-04-26T04:43:50.927Z,0.60
2019-04-26T04:46:49.636Z,0.70
2019-04-26T04:49:23.837Z,0.80
2019-04-26T04:51:54.303Z,0.63
2019-04-26T04:54:24.744Z,0.60
2019-04-26T04:57:00.900Z,0.63
2019-04-26T04:59:33.976Z,0.50
2019-04-26T05:02:09.892Z,0.53
2019-04-26T05:04:48.724Z,0.40
2019-04-26T05:07:23.982Z,0.50
2019-04-26T05:09:57.177Z,0.40
2019-04-26T05:12:30.442Z,0.47
2019-04-26T05:15:17.697Z,0.30
2019-04-26T05:17:53.876Z,0.40
2019-04-26T05:20:27.206Z,0.40
2019-04-26T05:23:16.079Z,0.50
2019-04-26T05:25:53.941Z,0.40
2019-04-26T05:28:38.072Z,0.30
2019-04-26T05:31:15.934Z,0.70
2019-04-26T05:33:47.770Z,0.40
2019-04-26T05:36:21.279Z,0.60
2019-04-26T05:39:08.238Z,0.40
2019-04-26T05:41:49.574Z,0.43
2019-04-26T05:44:33.539Z,0.67
2019-04-26T05:47:25.011Z,0.50
2019-04-26T05:50:32.061Z,0.50
2019-04-26T05:53:10.373Z,0.60
2019-04-26T05:55:49.562Z,0.60
2019-04-26T05:58:36.687Z,1.00
2019-04-26T06:01:39.276Z,0.80
2019-04-26T06:04:29.312Z,0.97
2019-04-26T06:07:25.296Z,0.83
2019-04-26T06:10:06.608Z,0.73
2019-04-26T06:12:51.158Z,0.87
2019-04-26T06:15:25.782Z,0.60
2019-04-26T06:18:15.745Z,0.80
2019-04-26T06:20:49.196Z,0.70
2019-04-26T06:23:22.548Z,0.70
2019-04-26T06:26:04.678Z,0.70
2019-04-26T06:28:35.186Z,0.60
2019-04-26T06:31:05.665Z,0.80
2019-04-26T06:33:41.770Z,0.77
2019-04-26T06:36:13.026Z,1.00
2019-04-26T06:39:06.371Z,0.73
2019-04-26T06:41:58.506Z,0.90
2019-04-26T06:44:30.621Z,0.70
2019-04-26T06:47:03.907Z,0.90
2019-04-26T06:49:38.568Z,0.80
2019-04-26T06:52:18.057Z,0.90
2019-04-26T06:54:48.475Z,0.60
2019-04-26T06:57:35.567Z,0.80
2019-04-26T07:00:06.669Z,0.90
2019-04-26T07:02:40.085Z,0.57
2019-04-26T07:05:10.543Z,0.70
2019-04-26T07:07:41.125Z,0.70
2019-04-26T07:10:15.467Z,0.70
2019-04-26T07:12:53.245Z,0.60
2019-04-26T07:15:40.177Z,0.70
2019-04-26T07:18:10.798Z,0.90
2019-04-26T07:21:00.604Z,0.93
2019-04-26T07:23:59.905Z,0.70
2019-04-26T07:26:33.012Z,0.83
2019-04-26T07:29:14.054Z,0.67
2019-04-26T07:31:59.516Z,0.50
2019-04-26T07:34:50.781Z,0.70
2019-04-26T07:37:37.899Z,0.97
2019-04-26T07:40:30.461Z,1.10
2019-04-26T07:43:20.942Z,0.90
2019-04-26T07:46:08.103Z,0.73
2019-04-26T07:48:56.677Z,0.80
2019-04-26T07:51:27.184Z,0.80
2019-04-26T07:54:00.538Z,0.70
2019-04-26T07:56:31.202Z,0.70
2019-04-26T07:59:08.776Z,1.00
2019-04-26T08:01:51.031Z,1.10
2019-04-26T08:04:23.174Z,1.00
2019-04-26T08:06:56.715Z,0.80
2019-04-26T08:09:27.463Z,0.70
2019-04-26T08:11:58.166Z,0.90
2019-04-26T08:14:32.869Z,0.90
2019-04-26T08:17:34.830Z,1.00
2019-04-26T08:20:23.251Z,1.00
2019-04-26T08:22:53.688Z,1.00
2019-04-26T08:25:23.527Z,1.07
2019-04-26T08:27:53.968Z,0.80
2019-04-26T08:30:23.453Z,1.10
2019-04-26T08:32:53.946Z,1.20
2019-04-26T08:35:28.624Z,1.80
2019-04-26T08:37:59.116Z,8.00
2019-04-26T08:40:31.216Z,11.33
2019-04-26T08:43:02.535Z,1.40
2019-04-26T08:45:37.583Z,0.87
2019-04-26T08:48:22.399Z,1.60
2019-04-26T08:50:54.493Z,1.87
2019-04-26T08:53:24.686Z,13.60
2019-04-26T08:55:55.050Z,1.07
2019-04-26T08:58:25.834Z,1.40
2019-04-26T09:01:00.232Z,1.37
2019-04-26T09:03:35.312Z,1.60
2019-04-26T09:06:09.753Z,1.50
2019-04-26T09:08:43.580Z,1.90
2019-04-26T09:11:23.773Z,1.60
2019-04-26T09:13:44.769Z,1.90
2019-04-26T09:16:15.199Z,1.53
2019-04-26T09:18:52.584Z,1.67
2019-04-26T09:21:17.356Z,1.80
2019-04-26T09:24:03.555Z,1.30
2019-04-26T09:26:46.939Z,1.30
2019-04-26T09:29:26.447Z,1.70
2019-04-26T09:31:59.093Z,2.03
2019-04-26T09:34:29.627Z,2.13
2019-04-26T09:36:58.523Z,2.23
2019-04-26T09:39:27.470Z,1.70
2019-04-26T09:42:16.276Z,2.10
2019-04-26T09:44:47.910Z,1.90
2019-04-26T09:47:27.659Z,1.80
2019-04-26T09:50:07.447Z,2.10
2019-04-26T09:52:40.948Z,1.73
2019-04-26T09:55:09.929Z,1.90
2019-04-26T09:57:38.883Z,2.00
2019-04-26T10:00:10.297Z,2.20
2019-04-26T10:02:41.428Z,2.33
2019-04-26T10:05:12.076Z,1.60
2019-04-26T10:07:41.151Z,1.97
2019-04-26T10:10:22.293Z,1.73
2019-04-26T10:12:43.153Z,1.83
2019-04-26T10:15:30.209Z,2.00
2019-04-26T10:17:59.867Z,2.30
2019-04-26T10:20:28.810Z,2.70
2019-04-26T10:22:57.716Z,2.60
2019-04-26T10:25:27.699Z,1.93
2019-04-26T10:27:56.683Z,2.40
2019-04-26T10:30:25.568Z,2.40
2019-04-26T10:32:54.545Z,2.50
2019-04-26T10:35:23.521Z,2.23
2019-04-26T10:37:52.797Z,2.67
2019-04-26T10:40:21.807Z,2.50
2019-04-26T10:42:50.837Z,2.40
2019-04-26T10:45:21.337Z,2.00
2019-04-26T10:47:50.441Z,1.70
2019-04-26T10:50:19.402Z,1.87
2019-04-26T10:52:54.259Z,2.13
2019-04-26T10:55:23.328Z,1.70
2019-04-26T10:57:59.997Z,1.50
2019-04-26T11:00:30.561Z,2.07
2019-04-26T11:03:00.140Z,1.60
2019-04-26T11:05:30.275Z,1.67
2019-04-26T11:07:59.221Z,1.63
2019-04-26T11:10:28.658Z,1.50
2019-04-26T11:12:57.627Z,1.20
2019-04-26T11:15:29.130Z,1.40
2019-04-26T11:17:57.167Z,1.00
2019-04-26T11:20:26.164Z,1.20
2019-04-26T11:22:55.165Z,1.07
2019-04-26T11:25:24.674Z,1.07
2019-04-26T11:27:54.786Z,1.10
2019-04-26T11:30:23.761Z,1.30
2019-04-26T11:32:52.659Z,1.03
2019-04-26T11:35:21.677Z,1.20
2019-04-26T11:37:55.180Z,0.90
2019-04-26T11:40:21.327Z,1.20
2019-04-26T11:42:50.292Z,1.03
2019-04-26T11:45:19.291Z,0.90
2019-04-26T11:47:55.891Z,1.40
2019-04-26T11:50:19.170Z,0.93
2019-04-26T11:52:48.131Z,1.10
2019-04-26T11:55:17.098Z,1.37
2019-04-26T11:57:47.551Z,1.50
2019-04-26T12:00:21.078Z,1.20
2019-04-26T12:02:50.745Z,1.50
2019-04-26T12:05:34.154Z,1.50
2019-04-26T12:08:07.426Z,1.97
2019-04-26T12:10:36.337Z,2.07
2019-04-26T12:13:06.195Z,2.40
2019-04-26T12:15:39.061Z,2.40
2019-04-26T12:18:09.763Z,2.37
2019-04-26T12:20:36.688Z,2.63
2019-04-26T12:23:05.686Z,2.70
2019-04-26T12:25:34.573Z,2.63
2019-04-26T12:28:05.977Z,2.37
2019-04-26T12:30:34.090Z,2.50
2019-04-26T12:33:03.052Z,2.30
2019-04-26T12:35:31.940Z,2.20
2019-04-26T12:38:00.935Z,1.90
2019-04-26T12:40:29.892Z,2.03
2019-04-26T12:43:00.422Z,2.07
2019-04-26T12:45:31.040Z,1.70
2019-04-26T12:48:01.568Z,1.80
2019-04-26T12:50:36.558Z,1.97
2019-04-26T12:53:01.171Z,1.80
2019-04-26T12:55:30.139Z,1.60
2019-04-26T12:57:59.025Z,1.80
2019-04-26T13:00:32.985Z,1.80
2019-04-26T13:03:01.603Z,2.00
2019-04-26T13:05:31.681Z,1.60
2019-04-26T13:08:00.647Z,1.53
2019-04-26T13:10:35.465Z,1.50
2019-04-26T13:13:09.995Z,1.57
2019-04-26T13:15:46.303Z,1.43
2019-04-26T13:18:15.459Z,1.50
2019-04-26T13:20:44.393Z,1.60
2019-04-26T13:23:13.349Z,1.77
2019-04-26T13:25:42.247Z,1.50
2019-04-26T13:28:11.145Z,1.60
2019-04-26T13:30:43.316Z,1.33
2019-04-26T13:33:10.727Z,1.20
2019-04-26T13:35:41.326Z,1.40
2019-04-26T13:38:10.206Z,1.60
2019-04-26T13:40:40.284Z,1.67
2019-04-26T13:43:09.457Z,1.83
2019-04-26T13:45:55.183Z,2.00
2019-04-26T13:48:25.805Z,1.80
2019-04-26T13:51:11.569Z,1.90
2019-04-26T13:53:40.479Z,1.70
2019-04-26T13:56:09.371Z,1.70
2019-04-26T13:58:38.293Z,1.80
2019-04-26T14:01:07.664Z,1.90
2019-04-26T14:03:36.575Z,1.53
2019-04-26T14:06:05.933Z,1.57
2019-04-26T14:08:34.830Z,2.00
2019-04-26T14:11:04.359Z,1.87
2019-04-26T14:13:33.354Z,2.10
2019-04-26T14:16:02.686Z,1.67
2019-04-26T14:18:34.632Z,1.70
2019-04-26T14:21:02.354Z,1.77
2019-04-26T14:23:35.756Z,2.03
2019-04-26T14:26:22.861Z,1.70
2019-04-26T14:28:54.219Z,2.00
2019-04-26T14:31:22.357Z,1.80
2019-04-26T14:33:52.349Z,2.10
2019-04-26T14:36:22.594Z,2.17
2019-04-26T14:39:05.051Z,2.17
2019-04-26T14:41:23.771Z,2.20
2019-04-26T14:43:56.701Z,2.03
2019-04-26T14:46:23.680Z,2.00
2019-04-26T14:49:01.284Z,2.27
2019-04-26T14:51:23.234Z,2.37
2019-04-26T14:53:52.136Z,2.07
2019-04-26T14:56:24.731Z,2.33
2019-04-26T14:58:52.296Z,2.33
2019-04-26T15:01:39.504Z,1.90
2019-04-26T15:04:28.121Z,1.80
2019-04-26T15:06:59.510Z,2.20
2019-04-26T15:09:33.352Z,2.33
2019-04-26T15:12:01.351Z,2.10
2019-04-26T15:14:29.925Z,2.30
2019-04-26T15:16:58.846Z,1.73
2019-04-26T15:19:28.220Z,2.20
2019-04-26T15:21:57.317Z,1.97
2019-04-26T15:24:26.316Z,2.20
2019-04-26T15:26:58.188Z,1.90
2019-04-26T15:29:28.349Z,1.80
2019-04-26T15:31:58.318Z,1.90
2019-04-26T15:34:27.258Z,1.70
2019-04-26T15:36:56.172Z,2.00
2019-04-26T15:39:33.135Z,1.83
2019-04-26T15:42:03.778Z,1.97
2019-04-26T15:44:43.435Z,1.73
2019-04-26T15:47:32.003Z,1.40
2019-04-26T15:50:09.750Z,1.60
2019-04-26T15:52:35.634Z,1.57
2019-04-26T15:55:06.052Z,1.57
2019-04-26T15:57:35.118Z,1.83
2019-04-26T16:00:05.345Z,1.50
2019-04-26T16:02:35.881Z,1.50
2019-04-26T16:05:05.741Z,1.60
2019-04-26T16:07:34.644Z,1.90
2019-04-26T16:10:05.105Z,2.00
2019-04-26T16:12:34.065Z,2.10
2019-04-26T16:15:06.494Z,2.00
2019-04-26T16:17:36.303Z,1.97
2019-04-26T16:20:07.216Z,2.30
2019-04-26T16:22:36.197Z,1.63
2019-04-26T16:25:06.546Z,1.93
2019-04-26T16:27:35.670Z,2.20
2019-04-26T16:30:10.134Z,2.03
2019-04-26T16:32:54.064Z,2.10
2019-04-26T16:35:25.597Z,1.90
2019-04-26T16:37:52.139Z,1.90
2019-04-26T16:40:21.111Z,2.20
2019-04-26T16:42:57.072Z,2.00
2019-04-26T16:45:22.608Z,2.00
2019-04-26T16:47:52.651Z,1.93
2019-04-26T16:50:28.624Z,2.20
2019-04-26T16:52:52.741Z,2.17
2019-04-26T16:55:24.246Z,1.90
2019-04-26T16:57:55.627Z,2.13
2019-04-26T17:00:47.125Z,1.60
2019-04-26T17:03:02.784Z,1.60
2019-04-26T17:05:45.390Z,1.40
2019-04-26T17:07:58.968Z,1.80
2019-04-26T17:10:25.489Z,1.20
2019-04-26T17:12:54.528Z,1.43
2019-04-26T17:15:24.264Z,1.50
2019-04-26T17:17:53.421Z,1.40
2019-04-26T17:20:22.318Z,1.50
2019-04-26T17:22:59.620Z,1.40
2019-04-26T17:25:32.391Z,1.30
2019-04-26T17:28:03.303Z,1.43
2019-04-26T17:30:34.549Z,1.30
2019-04-26T17:33:03.014Z,1.10
2019-04-26T17:35:36.681Z,1.60
2019-04-26T17:38:05.191Z,1.50
2019-04-26T17:40:36.457Z,1.50
2019-04-26T17:43:05.299Z,1.80
2019-04-26T17:45:42.565Z,1.50
2019-04-26T17:48:12.801Z,2.50
2019-04-26T17:50:38.980Z,2.10
2019-04-26T17:53:10.788Z,13.77
2019-04-26T17:55:41.006Z,16.23
2019-04-26T17:58:14.926Z,16.33
2019-04-26T18:00:45.958Z,5.27
2019-04-26T18:03:14.656Z,5.23
2019-04-26T18:05:56.298Z,8.07
2019-04-26T18:08:33.575Z,2.97
2019-04-26T18:10:43.159Z,9.83
2019-04-26T18:13:16.292Z,4.80
2019-04-26T18:15:46.890Z,4.30
2019-04-26T18:18:31.625Z,8.10
2019-04-26T18:21:07.966Z,3.60
2019-04-26T18:23:37.156Z,4.70
2019-04-26T18:26:06.053Z,3.10
2019-04-26T18:28:34.952Z,4.00
2019-04-26T18:31:05.652Z,6.37
2019-04-26T18:33:34.607Z,3.10
2019-04-26T18:36:04.474Z,4.47
2019-04-26T18:38:34.543Z,2.50
2019-04-26T18:41:03.824Z,4.30
2019-04-26T18:43:32.957Z,3.30
2019-04-26T18:46:06.565Z,2.20
2019-04-26T18:48:40.514Z,2.00
2019-04-26T18:51:07.460Z,1.90
2019-04-26T18:53:39.683Z,2.43
2019-04-26T18:56:09.508Z,2.23
2019-04-26T18:58:39.968Z,2.00
2019-04-26T19:01:10.507Z,1.93
2019-04-26T19:03:39.417Z,1.80
2019-04-26T19:06:08.372Z,2.10
2019-04-26T19:08:45.564Z,1.90
2019-04-26T19:11:11.701Z,2.00
2019-04-26T19:13:56.472Z,1.80
2019-04-26T19:16:46.464Z,2.03
2019-04-26T19:19:22.832Z,1.60
2019-04-26T19:21:50.714Z,1.60
2019-04-26T19:24:20.928Z,1.90
2019-04-26T19:26:50.100Z,1.83
2019-04-26T19:29:27.050Z,1.60
2019-04-26T19:31:52.195Z,2.00
2019-04-26T19:34:21.877Z,2.00
2019-04-26T19:36:52.475Z,1.80
2019-04-26T19:39:31.639Z,1.43
2019-04-26T19:41:57.623Z,1.80
2019-04-26T19:44:24.345Z,1.90
2019-04-26T19:46:58.045Z,1.83
2019-04-26T19:49:43.846Z,2.17
2019-04-26T19:52:46.926Z,2.57
2019-04-26T19:55:37.284Z,2.00
2019-04-26T19:58:09.658Z,2.03
2019-04-26T20:00:42.544Z,2.00
2019-04-26T20:03:13.454Z,1.97
2019-04-26T20:05:40.615Z,2.10
2019-04-26T20:08:11.986Z,2.13
2019-04-26T20:10:43.727Z,1.90
2019-04-26T20:13:15.126Z,2.30
2019-04-26T20:15:42.470Z,2.50
2019-04-26T20:18:12.230Z,2.40
2019-04-26T20:20:41.511Z,1.83
2019-04-26T20:23:12.258Z,2.30
2019-04-26T20:25:41.113Z,2.40
2019-04-26T20:28:10.108Z,2.40
2019-04-26T20:30:52.365Z,2.43
2019-04-26T20:33:22.429Z,2.50
2019-04-26T20:35:51.523Z,2.30
2019-04-26T20:38:20.512Z,2.30
2019-04-26T20:40:49.443Z,2.60
2019-04-26T20:43:24.327Z,2.67
2019-04-26T20:46:08.882Z,2.63
2019-04-26T20:48:21.385Z,2.30
2019-04-26T20:50:51.608Z,2.73
2019-04-26T20:53:21.644Z,2.43
2019-04-26T20:55:50.702Z,2.70
2019-04-26T20:58:19.695Z,2.57
2019-04-26T21:00:54.574Z,2.93
2019-04-26T21:03:24.802Z,2.73
2019-04-26T21:05:58.807Z,2.33
2019-04-26T21:08:25.785Z,3.20
2019-04-26T21:10:52.164Z,2.00
2019-04-26T21:13:27.179Z,2.00
2019-04-26T21:15:58.318Z,2.40
2019-04-26T21:18:24.084Z,2.53
2019-04-26T21:20:52.980Z,2.53
2019-04-26T21:23:22.299Z,2.50
2019-04-26T21:25:56.108Z,2.97
2019-04-26T21:28:42.602Z,3.13
2019-04-26T21:31:23.110Z,2.67
2019-04-26T21:33:53.636Z,2.63
2019-04-26T21:36:36.250Z,2.53
2019-04-26T21:39:25.181Z,3.10
2019-04-26T21:41:55.934Z,3.03
2019-04-26T21:44:24.895Z,3.30
2019-04-26T21:46:58.672Z,3.10
2019-04-26T21:49:24.461Z,3.27
2019-04-26T21:51:54.307Z,2.97
2019-04-26T21:54:24.963Z,3.10
2019-04-26T21:56:54.250Z,3.20
2019-04-26T21:59:24.388Z,3.10
2019-04-26T22:01:58.838Z,3.73
2019-04-26T22:04:24.506Z,3.47
2019-04-26T22:06:55.562Z,3.10
2019-04-26T22:09:40.709Z,3.67
2019-04-26T22:12:12.793Z,3.40
2019-04-26T22:14:46.337Z,4.10
2019-04-26T22:17:18.877Z,3.67
2019-04-26T22:19:49.464Z,3.30
2019-04-26T22:22:20.135Z,3.70
2019-04-26T22:24:55.457Z,3.23
2019-04-26T22:27:25.359Z,3.67
2019-04-26T22:29:55.112Z,3.73
2019-04-26T22:32:25.021Z,3.50
2019-04-26T22:34:53.968Z,3.53
2019-04-26T22:37:29.665Z,3.50
2019-04-26T22:39:54.325Z,3.17
2019-04-26T22:42:24.001Z,3.27
2019-04-26T22:44:56.249Z,3.47
2019-04-26T22:47:42.758Z,3.90
2019-04-26T22:50:14.031Z,3.70
2019-04-26T22:52:46.694Z,3.93
2019-04-26T22:55:15.819Z,4.47
2019-04-26T22:57:45.352Z,3.67
2019-04-26T23:00:15.403Z,3.97
2019-04-26T23:02:45.973Z,3.93
2019-04-26T23:05:14.862Z,4.33
2019-04-26T23:07:43.757Z,3.70
2019-04-26T23:10:15.231Z,4.07
2019-04-26T23:13:04.649Z,3.93
2019-04-26T23:15:43.277Z,3.43
2019-04-26T23:18:15.886Z,3.80
2019-04-26T23:20:46.181Z,3.70
2019-04-26T23:23:15.107Z,3.87
2019-04-26T23:25:44.001Z,4.10
2019-04-26T23:28:12.886Z,4.63
2019-04-26T23:30:42.532Z,5.03
2019-04-26T23:33:13.454Z,4.47
2019-04-26T23:35:45.757Z,5.00
2019-04-26T23:38:13.917Z,4.50
2019-04-26T23:40:44.291Z,4.90
2019-04-26T23:43:13.266Z,4.67
2019-04-26T23:45:48.245Z,4.80
2019-04-26T23:48:13.357Z,5.07
2019-04-26T23:50:42.958Z,4.87
2019-04-26T23:53:13.782Z,4.83
2019-04-26T23:55:45.244Z,4.30
2019-04-26T23:58:13.909Z,4.93
